sensor_id;sensor_type;location;lat;lon;timestamp;pressure;altitude;pressure_sealevel;temperature;humidity
38612;BME280;24368;52.156;20.788;2022-11-21T00:03:25;99731.64;;;-4.04;100.00
38612;BME280;24368;52.156;20.788;2022-11-21T00:08:26;99739.48;;;-3.99;100.00
38612;BME280;24368;52.156;20.788;2022-11-21T00:13:28;99734.86;;;-4.00;100.00
38612;BME280;24368;52.156;20.788;2022-11-21T00:18:29;99730.99;;;-3.98;100.00
38612;BME280;24368;52.156;20.788;2022-11-21T00:23:30;99730.84;;;-3.99;100.00
38612;BME280;24368;52.156;20.788;2022-11-21T00:28:31;99724.77;;;-3.95;100.00
38612;BME280;24368;52.156;20.788;2022-11-21T00:33:36;99728.07;;;-3.95;100.00
38612;BME280;24368;52.156;20.788;2022-11-21T00:38:38;99735.42;;;-3.94;100.00
38612;BME280;24368;52.156;20.788;2022-11-21T00:43:39;99731.85;;;-3.88;100.00
38612;BME280;24368;52.156;20.788;2022-11-21T00:48:41;99721.45;;;-3.83;100.00
38612;BME280;24368;52.156;20.788;2022-11-21T00:53:42;99722.75;;;-3.78;100.00
38612;BME280;24368;52.156;20.788;2022-11-21T00:58:43;99714.81;;;-3.71;100.00
38612;BME280;24368;52.156;20.788;2022-11-21T01:03:44;99705.59;;;-3.62;100.00
38612;BME280;24368;52.156;20.788;2022-11-21T01:08:46;99706.09;;;-3.59;100.00
38612;BME280;24368;52.156;20.788;2022-11-21T01:13:47;99696.61;;;-3.58;100.00
38612;BME280;24368;52.156;20.788;2022-11-21T01:18:49;99688.63;;;-3.67;100.00
38612;BME280;24368;52.156;20.788;2022-11-21T01:23:51;99686.92;;;-3.78;100.00
38612;BME280;24368;52.156;20.788;2022-11-21T01:28:52;99682.73;;;-3.87;100.00
38612;BME280;24368;52.156;20.788;2022-11-21T01:33:57;99688.67;;;-3.91;100.00
38612;BME280;24368;52.156;20.788;2022-11-21T01:39:01;99679.00;;;-3.98;100.00
38612;BME280;24368;52.156;20.788;2022-11-21T01:44:19;99678.91;;;-4.09;100.00
38612;BME280;24368;52.156;20.788;2022-11-21T01:49:28;99674.81;;;-4.13;100.00
38612;BME280;24368;52.156;20.788;2022-11-21T02:04:44;99682.55;;;-4.03;100.00
38612;BME280;24368;52.156;20.788;2022-11-21T02:09:49;99673.41;;;-3.99;100.00
38612;BME280;24368;52.156;20.788;2022-11-21T02:14:52;99667.95;;;-4.00;100.00
38612;BME280;24368;52.156;20.788;2022-11-21T02:19:57;99671.71;;;-4.03;100.00
38612;BME280;24368;52.156;20.788;2022-11-21T02:25:06;99671.95;;;-4.11;100.00
38612;BME280;24368;52.156;20.788;2022-11-21T02:30:09;99676.85;;;-4.20;100.00
38612;BME280;24368;52.156;20.788;2022-11-21T02:35:11;99673.52;;;-4.36;100.00
38612;BME280;24368;52.156;20.788;2022-11-21T02:40:18;99677.17;;;-4.39;100.00
38612;BME280;24368;52.156;20.788;2022-11-21T02:45:51;99685.36;;;-4.52;100.00
38612;BME280;24368;52.156;20.788;2022-11-21T02:50:52;99694.05;;;-4.44;100.00
38612;BME280;24368;52.156;20.788;2022-11-21T02:55:53;99694.78;;;-4.44;100.00
38612;BME280;24368;52.156;20.788;2022-11-21T03:00:54;99694.05;;;-4.47;100.00
38612;BME280;24368;52.156;20.788;2022-11-21T03:05:55;99697.27;;;-4.46;100.00
38612;BME280;24368;52.156;20.788;2022-11-21T03:10:56;99696.37;;;-4.45;100.00
38612;BME280;24368;52.156;20.788;2022-11-21T03:15:58;99698.81;;;-4.46;100.00
38612;BME280;24368;52.156;20.788;2022-11-21T03:20:59;99705.52;;;-4.56;100.00
38612;BME280;24368;52.156;20.788;2022-11-21T03:26:00;99712.55;;;-4.70;100.00
38612;BME280;24368;52.156;20.788;2022-11-21T03:31:01;99715.63;;;-4.74;100.00
38612;BME280;24368;52.156;20.788;2022-11-21T03:36:03;99712.12;;;-4.80;100.00
38612;BME280;24368;52.156;20.788;2022-11-21T03:41:04;99711.55;;;-4.82;100.00
38612;BME280;24368;52.156;20.788;2022-11-21T03:46:27;99719.80;;;-4.82;100.00
38612;BME280;24368;52.156;20.788;2022-11-21T03:51:28;99715.91;;;-4.84;100.00
38612;BME280;24368;52.156;20.788;2022-11-21T03:56:30;99706.85;;;-4.81;100.00
38612;BME280;24368;52.156;20.788;2022-11-21T04:01:31;99709.46;;;-4.78;100.00
38612;BME280;24368;52.156;20.788;2022-11-21T04:06:32;99694.77;;;-4.83;100.00
38612;BME280;24368;52.156;20.788;2022-11-21T04:11:34;99695.58;;;-4.79;100.00
38612;BME280;24368;52.156;20.788;2022-11-21T04:16:35;99698.07;;;-4.77;100.00
38612;BME280;24368;52.156;20.788;2022-11-21T04:21:36;99697.28;;;-4.79;100.00
38612;BME280;24368;52.156;20.788;2022-11-21T04:26:37;99701.92;;;-4.89;100.00
38612;BME280;24368;52.156;20.788;2022-11-21T04:31:38;99692.41;;;-4.99;100.00
38612;BME280;24368;52.156;20.788;2022-11-21T04:36:39;99684.84;;;-5.02;100.00
38612;BME280;24368;52.156;20.788;2022-11-21T04:41:40;99685.77;;;-5.04;100.00
38612;BME280;24368;52.156;20.788;2022-11-21T04:46:41;99688.36;;;-5.00;100.00
38612;BME280;24368;52.156;20.788;2022-11-21T04:51:42;99678.79;;;-5.01;100.00
38612;BME280;24368;52.156;20.788;2022-11-21T04:56:43;99675.55;;;-5.20;100.00
38612;BME280;24368;52.156;20.788;2022-11-21T05:01:44;99676.69;;;-5.45;100.00
38612;BME280;24368;52.156;20.788;2022-11-21T05:06:45;99678.17;;;-5.40;100.00
38612;BME280;24368;52.156;20.788;2022-11-21T05:11:46;99681.67;;;-5.30;100.00
38612;BME280;24368;52.156;20.788;2022-11-21T05:17:06;99683.95;;;-5.24;100.00
38612;BME280;24368;52.156;20.788;2022-11-21T05:22:07;99690.40;;;-5.18;100.00
38612;BME280;24368;52.156;20.788;2022-11-21T05:27:08;99685.03;;;-5.29;100.00
38612;BME280;24368;52.156;20.788;2022-11-21T05:32:09;99683.31;;;-5.29;100.00
38612;BME280;24368;52.156;20.788;2022-11-21T05:37:10;99683.60;;;-5.31;100.00
38612;BME280;24368;52.156;20.788;2022-11-21T05:42:11;99674.10;;;-5.33;100.00
38612;BME280;24368;52.156;20.788;2022-11-21T05:47:12;99669.31;;;-5.30;100.00
38612;BME280;24368;52.156;20.788;2022-11-21T05:52:13;99678.76;;;-5.34;100.00
38612;BME280;24368;52.156;20.788;2022-11-21T05:57:14;99677.02;;;-5.48;100.00
38612;BME280;24368;52.156;20.788;2022-11-21T06:02:15;99677.38;;;-5.60;100.00
38612;BME280;24368;52.156;20.788;2022-11-21T06:07:35;99673.71;;;-5.71;100.00
38612;BME280;24368;52.156;20.788;2022-11-21T06:12:36;99676.89;;;-5.60;100.00
38612;BME280;24368;52.156;20.788;2022-11-21T06:17:37;99681.19;;;-5.49;100.00
38612;BME280;24368;52.156;20.788;2022-11-21T06:22:39;99668.55;;;-5.47;100.00
38612;BME280;24368;52.156;20.788;2022-11-21T06:27:40;99662.91;;;-5.40;100.00
38612;BME280;24368;52.156;20.788;2022-11-21T06:32:41;99667.52;;;-5.39;100.00
38612;BME280;24368;52.156;20.788;2022-11-21T06:37:42;99674.66;;;-5.38;100.00
38612;BME280;24368;52.156;20.788;2022-11-21T06:42:43;99687.05;;;-5.35;100.00
38612;BME280;24368;52.156;20.788;2022-11-21T06:47:44;99689.95;;;-5.38;100.00
38612;BME280;24368;52.156;20.788;2022-11-21T06:52:45;99695.66;;;-5.39;100.00
38612;BME280;24368;52.156;20.788;2022-11-21T06:57:46;99693.59;;;-5.35;100.00
38612;BME280;24368;52.156;20.788;2022-11-21T07:02:47;99701.88;;;-5.25;100.00
38612;BME280;24368;52.156;20.788;2022-11-21T07:07:48;99694.45;;;-5.13;100.00
38612;BME280;24368;52.156;20.788;2022-11-21T07:12:59;99677.14;;;-5.03;100.00
38612;BME280;24368;52.156;20.788;2022-11-21T07:18:21;99664.70;;;-4.80;100.00
38612;BME280;24368;52.156;20.788;2022-11-21T07:23:23;99660.64;;;-4.63;100.00
38612;BME280;24368;52.156;20.788;2022-11-21T07:28:24;99663.45;;;-4.47;100.00
38612;BME280;24368;52.156;20.788;2022-11-21T07:33:25;99650.31;;;-4.35;100.00
38612;BME280;24368;52.156;20.788;2022-11-21T07:38:27;99651.73;;;-4.26;100.00
38612;BME280;24368;52.156;20.788;2022-11-21T07:43:28;99638.67;;;-4.27;100.00
38612;BME280;24368;52.156;20.788;2022-11-21T07:48:29;99626.48;;;-4.24;100.00
38612;BME280;24368;52.156;20.788;2022-11-21T07:53:30;99639.48;;;-4.12;100.00
38612;BME280;24368;52.156;20.788;2022-11-21T07:58:31;99645.11;;;-4.04;100.00
38612;BME280;24368;52.156;20.788;2022-11-21T08:03:33;99639.56;;;-4.00;100.00
38612;BME280;24368;52.156;20.788;2022-11-21T08:08:34;99647.52;;;-3.88;100.00
38612;BME280;24368;52.156;20.788;2022-11-21T08:13:35;99651.83;;;-3.78;100.00
38612;BME280;24368;52.156;20.788;2022-11-21T08:18:36;99642.92;;;-3.65;100.00
38612;BME280;24368;52.156;20.788;2022-11-21T08:23:37;99633.23;;;-3.40;100.00
38612;BME280;24368;52.156;20.788;2022-11-21T08:28:38;99630.02;;;-3.15;100.00
38612;BME280;24368;52.156;20.788;2022-11-21T08:33:39;99632.90;;;-3.02;100.00
38612;BME280;24368;52.156;20.788;2022-11-21T08:38:41;99637.05;;;-2.87;100.00
38612;BME280;24368;52.156;20.788;2022-11-21T08:43:42;99626.83;;;-2.80;100.00
38612;BME280;24368;52.156;20.788;2022-11-21T08:48:43;99625.05;;;-2.67;100.00
38612;BME280;24368;52.156;20.788;2022-11-21T08:53:45;99631.05;;;-2.54;100.00
38612;BME280;24368;52.156;20.788;2022-11-21T08:58:46;99628.41;;;-2.30;100.00
38612;BME280;24368;52.156;20.788;2022-11-21T09:03:47;99630.13;;;-2.06;100.00
38612;BME280;24368;52.156;20.788;2022-11-21T09:08:48;99618.25;;;-1.90;100.00
38612;BME280;24368;52.156;20.788;2022-11-21T09:13:50;99622.75;;;-1.73;100.00
38612;BME280;24368;52.156;20.788;2022-11-21T09:19:10;99625.11;;;-1.47;100.00
38612;BME280;24368;52.156;20.788;2022-11-21T09:24:11;99617.67;;;-1.25;100.00
38612;BME280;24368;52.156;20.788;2022-11-21T09:29:12;99611.38;;;-1.13;100.00
38612;BME280;24368;52.156;20.788;2022-11-21T09:34:15;99592.23;;;-1.16;100.00
38612;BME280;24368;52.156;20.788;2022-11-21T09:39:16;99587.27;;;-1.20;100.00
38612;BME280;24368;52.156;20.788;2022-11-21T09:49:42;99583.98;;;-1.09;100.00
38612;BME280;24368;52.156;20.788;2022-11-21T09:54:58;99575.85;;;-1.06;100.00
38612;BME280;24368;52.156;20.788;2022-11-21T10:00:20;99560.16;;;-0.78;99.98
38612;BME280;24368;52.156;20.788;2022-11-21T10:05:42;99555.06;;;-0.46;98.63
38612;BME280;24368;52.156;20.788;2022-11-21T10:10:54;99549.13;;;-0.17;96.93
38612;BME280;24368;52.156;20.788;2022-11-21T10:16:09;99544.84;;;-0.05;95.39
38612;BME280;24368;52.156;20.788;2022-11-21T10:21:41;99542.73;;;0.05;95.48
38612;BME280;24368;52.156;20.788;2022-11-21T10:26:55;99537.56;;;0.12;94.93
38612;BME280;24368;52.156;20.788;2022-11-21T10:32:02;99532.95;;;0.29;94.88
38612;BME280;24368;52.156;20.788;2022-11-21T10:37:15;99534.09;;;0.59;93.54
38612;BME280;24368;52.156;20.788;2022-11-21T10:42:35;99540.86;;;0.78;92.07
38612;BME280;24368;52.156;20.788;2022-11-21T10:47:40;99530.89;;;1.12;90.96
38612;BME280;24368;52.156;20.788;2022-11-21T10:52:47;99518.34;;;1.58;89.40
38612;BME280;24368;52.156;20.788;2022-11-21T10:57:51;99503.40;;;3.11;83.46
38612;BME280;24368;52.156;20.788;2022-11-21T11:08:10;99504.55;;;8.01;61.38
38612;BME280;24368;52.156;20.788;2022-11-21T11:13:19;99510.91;;;8.24;58.45
38612;BME280;24368;52.156;20.788;2022-11-21T11:18:27;99519.98;;;4.23;73.26
38612;BME280;24368;52.156;20.788;2022-11-21T11:23:29;99522.83;;;3.28;78.16
38612;BME280;24368;52.156;20.788;2022-11-21T11:28:35;99520.83;;;2.29;84.51
38612;BME280;24368;52.156;20.788;2022-11-21T11:33:39;99521.83;;;1.90;87.53
38612;BME280;24368;52.156;20.788;2022-11-21T11:38:47;99521.13;;;1.60;89.54
38612;BME280;24368;52.156;20.788;2022-11-21T11:44:02;99530.34;;;1.40;91.03
38612;BME280;24368;52.156;20.788;2022-11-21T11:49:34;99530.30;;;1.17;92.57
38612;BME280;24368;52.156;20.788;2022-11-21T11:55:05;99519.83;;;1.04;94.30
38612;BME280;24368;52.156;20.788;2022-11-21T12:00:38;99510.59;;;1.02;95.04
38612;BME280;24368;52.156;20.788;2022-11-21T12:06:04;99514.41;;;0.98;95.81
38612;BME280;24368;52.156;20.788;2022-11-21T12:17:09;99493.66;;;0.92;97.26
38612;BME280;24368;52.156;20.788;2022-11-21T12:22:10;99490.68;;;0.95;97.74
38612;BME280;24368;52.156;20.788;2022-11-21T12:27:28;99478.49;;;0.91;98.35
38612;BME280;24368;52.156;20.788;2022-11-21T12:43:12;99466.46;;;0.87;99.82
38612;BME280;24368;52.156;20.788;2022-11-21T12:48:19;99469.18;;;0.88;99.63
38612;BME280;24368;52.156;20.788;2022-11-21T12:59:13;99458.03;;;0.82;100.00
38612;BME280;24368;52.156;20.788;2022-11-21T13:04:18;99455.06;;;0.82;100.00
38612;BME280;24368;52.156;20.788;2022-11-21T13:09:25;99457.52;;;0.89;100.00
38612;BME280;24368;52.156;20.788;2022-11-21T13:25:09;99454.50;;;0.85;100.00
38612;BME280;24368;52.156;20.788;2022-11-21T13:45:37;99453.84;;;0.54;100.00
38612;BME280;24368;52.156;20.788;2022-11-21T13:56:35;99443.39;;;0.55;100.00
38612;BME280;24368;52.156;20.788;2022-11-21T14:07:19;99442.92;;;0.46;100.00
38612;BME280;24368;52.156;20.788;2022-11-21T14:12:30;99435.15;;;0.39;100.00
38612;BME280;24368;52.156;20.788;2022-11-21T14:18:14;99440.46;;;0.33;100.00
38612;BME280;24368;52.156;20.788;2022-11-21T14:23:21;99440.53;;;0.25;100.00
38612;BME280;24368;52.156;20.788;2022-11-21T14:28:33;99444.77;;;0.21;100.00
38612;BME280;24368;52.156;20.788;2022-11-21T14:43:41;99435.73;;;0.22;100.00
38612;BME280;24368;52.156;20.788;2022-11-21T14:48:43;99427.90;;;0.30;100.00
38612;BME280;24368;52.156;20.788;2022-11-21T14:53:44;99422.58;;;0.36;100.00
38612;BME280;24368;52.156;20.788;2022-11-21T14:58:47;99429.23;;;0.37;100.00
38612;BME280;24368;52.156;20.788;2022-11-21T15:03:55;99434.65;;;0.29;100.00
38612;BME280;24368;52.156;20.788;2022-11-21T15:08:58;99430.91;;;0.19;100.00
38612;BME280;24368;52.156;20.788;2022-11-21T15:14:50;99424.61;;;0.15;100.00
38612;BME280;24368;52.156;20.788;2022-11-21T15:19:27;99424.13;;;0.12;100.00
38612;BME280;24368;52.156;20.788;2022-11-21T15:24:40;99426.40;;;0.12;100.00
38612;BME280;24368;52.156;20.788;2022-11-21T15:29:42;99433.65;;;0.19;100.00
38612;BME280;24368;52.156;20.788;2022-11-21T15:34:43;99437.75;;;0.20;100.00
38612;BME280;24368;52.156;20.788;2022-11-21T15:39:47;99438.45;;;0.27;100.00
38612;BME280;24368;52.156;20.788;2022-11-21T15:50:00;99441.16;;;0.26;100.00
38612;BME280;24368;52.156;20.788;2022-11-21T15:55:01;99438.88;;;0.21;100.00
38612;BME280;24368;52.156;20.788;2022-11-21T16:00:03;99441.63;;;0.14;100.00
38612;BME280;24368;52.156;20.788;2022-11-21T16:05:14;99435.80;;;0.18;100.00
38612;BME280;24368;52.156;20.788;2022-11-21T16:10:15;99435.45;;;0.28;100.00
38612;BME280;24368;52.156;20.788;2022-11-21T16:15:16;99431.48;;;0.31;100.00
38612;BME280;24368;52.156;20.788;2022-11-21T16:20:17;99430.18;;;0.27;100.00
38612;BME280;24368;52.156;20.788;2022-11-21T16:25:19;99430.85;;;0.24;100.00
38612;BME280;24368;52.156;20.788;2022-11-21T16:30:20;99432.24;;;0.19;100.00
38612;BME280;24368;52.156;20.788;2022-11-21T16:35:22;99435.61;;;0.21;100.00
38612;BME280;24368;52.156;20.788;2022-11-21T16:40:23;99430.88;;;0.19;100.00
38612;BME280;24368;52.156;20.788;2022-11-21T16:45:25;99427.69;;;0.22;100.00
38612;BME280;24368;52.156;20.788;2022-11-21T16:50:26;99430.33;;;0.22;100.00
38612;BME280;24368;52.156;20.788;2022-11-21T16:55:27;99426.80;;;0.26;100.00
38612;BME280;24368;52.156;20.788;2022-11-21T17:00:30;99427.08;;;0.34;100.00
38612;BME280;24368;52.156;20.788;2022-11-21T17:05:30;99428.45;;;0.29;100.00
38612;BME280;24368;52.156;20.788;2022-11-21T17:10:31;99431.15;;;0.30;100.00
38612;BME280;24368;52.156;20.788;2022-11-21T17:15:33;99430.80;;;0.33;100.00
38612;BME280;24368;52.156;20.788;2022-11-21T17:20:34;99427.13;;;0.31;100.00
38612;BME280;24368;52.156;20.788;2022-11-21T17:25:35;99426.56;;;0.29;100.00
38612;BME280;24368;52.156;20.788;2022-11-21T17:30:37;99420.78;;;0.28;100.00
38612;BME280;24368;52.156;20.788;2022-11-21T17:35:44;99420.16;;;0.24;100.00
38612;BME280;24368;52.156;20.788;2022-11-21T17:40:45;99419.19;;;0.25;100.00
38612;BME280;24368;52.156;20.788;2022-11-21T17:45:46;99427.18;;;0.25;100.00
38612;BME280;24368;52.156;20.788;2022-11-21T17:50:59;99429.62;;;0.34;100.00
38612;BME280;24368;52.156;20.788;2022-11-21T17:56:05;99428.30;;;0.29;100.00
38612;BME280;24368;52.156;20.788;2022-11-21T18:01:10;99426.02;;;0.27;100.00
38612;BME280;24368;52.156;20.788;2022-11-21T18:06:18;99432.27;;;0.21;100.00
38612;BME280;24368;52.156;20.788;2022-11-21T18:11:20;99437.63;;;0.24;100.00
38612;BME280;24368;52.156;20.788;2022-11-21T18:16:24;99438.05;;;0.30;100.00
38612;BME280;24368;52.156;20.788;2022-11-21T18:21:27;99430.27;;;0.33;100.00
38612;BME280;24368;52.156;20.788;2022-11-21T18:26:32;99429.24;;;0.35;100.00
38612;BME280;24368;52.156;20.788;2022-11-21T18:31:34;99424.18;;;0.33;100.00
38612;BME280;24368;52.156;20.788;2022-11-21T18:36:35;99426.55;;;0.29;100.00
38612;BME280;24368;52.156;20.788;2022-11-21T18:41:37;99428.48;;;0.27;100.00
38612;BME280;24368;52.156;20.788;2022-11-21T18:46:38;99428.10;;;0.32;100.00
38612;BME280;24368;52.156;20.788;2022-11-21T18:51:39;99423.34;;;0.35;100.00
38612;BME280;24368;52.156;20.788;2022-11-21T18:56:40;99426.48;;;0.42;100.00
38612;BME280;24368;52.156;20.788;2022-11-21T19:01:42;99435.42;;;0.45;100.00
38612;BME280;24368;52.156;20.788;2022-11-21T19:06:43;99434.70;;;0.45;100.00
38612;BME280;24368;52.156;20.788;2022-11-21T19:11:44;99437.25;;;0.39;100.00
38612;BME280;24368;52.156;20.788;2022-11-21T19:16:45;99445.05;;;0.37;100.00
38612;BME280;24368;52.156;20.788;2022-11-21T19:21:46;99444.65;;;0.35;100.00
38612;BME280;24368;52.156;20.788;2022-11-21T19:26:47;99440.86;;;0.37;100.00
38612;BME280;24368;52.156;20.788;2022-11-21T19:31:50;99441.95;;;0.41;100.00
38612;BME280;24368;52.156;20.788;2022-11-21T19:36:51;99444.73;;;0.46;100.00
38612;BME280;24368;52.156;20.788;2022-11-21T19:41:53;99447.27;;;0.54;100.00
38612;BME280;24368;52.156;20.788;2022-11-21T19:46:54;99452.17;;;0.53;100.00
38612;BME280;24368;52.156;20.788;2022-11-21T19:51:55;99454.12;;;0.50;100.00
38612;BME280;24368;52.156;20.788;2022-11-21T19:56:56;99451.16;;;0.45;100.00
38612;BME280;24368;52.156;20.788;2022-11-21T20:01:57;99455.70;;;0.40;100.00
38612;BME280;24368;52.156;20.788;2022-11-21T20:06:58;99453.21;;;0.37;100.00
38612;BME280;24368;52.156;20.788;2022-11-21T20:12:00;99456.81;;;0.39;100.00
38612;BME280;24368;52.156;20.788;2022-11-21T20:17:02;99460.27;;;0.44;100.00
38612;BME280;24368;52.156;20.788;2022-11-21T20:22:03;99460.02;;;0.47;100.00
38612;BME280;24368;52.156;20.788;2022-11-21T20:27:04;99454.94;;;0.53;100.00
38612;BME280;24368;52.156;20.788;2022-11-21T20:32:05;99462.00;;;0.58;100.00
38612;BME280;24368;52.156;20.788;2022-11-21T20:37:06;99467.87;;;0.56;100.00
38612;BME280;24368;52.156;20.788;2022-11-21T20:42:07;99465.66;;;0.51;100.00
38612;BME280;24368;52.156;20.788;2022-11-21T20:47:08;99478.52;;;0.46;100.00
38612;BME280;24368;52.156;20.788;2022-11-21T20:52:09;99479.64;;;0.42;100.00
38612;BME280;24368;52.156;20.788;2022-11-21T20:57:11;99481.39;;;0.40;100.00
38612;BME280;24368;52.156;20.788;2022-11-21T21:02:12;99484.54;;;0.42;100.00
38612;BME280;24368;52.156;20.788;2022-11-21T21:07:13;99488.45;;;0.47;100.00
38612;BME280;24368;52.156;20.788;2022-11-21T21:12:15;99489.70;;;0.52;100.00
38612;BME280;24368;52.156;20.788;2022-11-21T21:17:16;99488.52;;;0.63;100.00
38612;BME280;24368;52.156;20.788;2022-11-21T21:22:17;99485.66;;;0.64;100.00
38612;BME280;24368;52.156;20.788;2022-11-21T21:27:18;99484.27;;;0.57;100.00
38612;BME280;24368;52.156;20.788;2022-11-21T21:32:19;99479.38;;;0.51;100.00
38612;BME280;24368;52.156;20.788;2022-11-21T21:37:20;99483.53;;;0.44;100.00
38612;BME280;24368;52.156;20.788;2022-11-21T21:42:21;99487.07;;;0.43;100.00
38612;BME280;24368;52.156;20.788;2022-11-21T21:47:23;99492.24;;;0.45;100.00
38612;BME280;24368;52.156;20.788;2022-11-21T21:52:24;99496.23;;;0.53;100.00
38612;BME280;24368;52.156;20.788;2022-11-21T21:57:25;99497.03;;;0.58;100.00
38612;BME280;24368;52.156;20.788;2022-11-21T22:02:26;99501.80;;;0.57;100.00
38612;BME280;24368;52.156;20.788;2022-11-21T22:07:27;99492.30;;;0.59;100.00
38612;BME280;24368;52.156;20.788;2022-11-21T22:12:28;99491.29;;;0.54;100.00
38612;BME280;24368;52.156;20.788;2022-11-21T22:17:30;99485.93;;;0.49;100.00
38612;BME280;24368;52.156;20.788;2022-11-21T22:22:31;99490.12;;;0.46;100.00
38612;BME280;24368;52.156;20.788;2022-11-21T22:50:24;99502.34;;;0.61;100.00
38612;BME280;24368;52.156;20.788;2022-11-21T22:55:25;99496.92;;;0.62;100.00
38612;BME280;24368;52.156;20.788;2022-11-21T23:00:28;99501.84;;;0.61;100.00
38612;BME280;24368;52.156;20.788;2022-11-21T23:05:29;99503.86;;;0.59;100.00
38612;BME280;24368;52.156;20.788;2022-11-21T23:10:30;99504.59;;;0.54;100.00
38612;BME280;24368;52.156;20.788;2022-11-21T23:15:32;99506.36;;;0.51;100.00
38612;BME280;24368;52.156;20.788;2022-11-21T23:20:33;99507.13;;;0.48;100.00
38612;BME280;24368;52.156;20.788;2022-11-21T23:25:34;99505.77;;;0.52;100.00
38612;BME280;24368;52.156;20.788;2022-11-21T23:30:35;99506.63;;;0.55;100.00
38612;BME280;24368;52.156;20.788;2022-11-21T23:35:36;99506.16;;;0.64;100.00
38612;BME280;24368;52.156;20.788;2022-11-21T23:40:37;99497.85;;;0.63;100.00
38612;BME280;24368;52.156;20.788;2022-11-21T23:45:39;99488.05;;;0.62;100.00
38612;BME280;24368;52.156;20.788;2022-11-21T23:50:40;99492.19;;;0.48;100.00
38612;BME280;24368;52.156;20.788;2022-11-21T23:55:42;99494.60;;;0.44;100.00
